sensor_id;sensor_type;location;lat;lon;timestamp;pressure;altitude;pressure_sealevel;temperature;humidity
69842;BME280;57138;51.326;-0.068;2023-12-20T00:01:37;100332.53;;;3.74;100.00
69842;BME280;57138;51.326;-0.068;2023-12-20T00:04:02;100321.81;;;3.75;100.00
69842;BME280;57138;51.326;-0.068;2023-12-20T00:06:29;100329.19;;;3.82;100.00
69842;BME280;57138;51.326;-0.068;2023-12-20T00:08:54;100316.28;;;3.69;100.00
69842;BME280;57138;51.326;-0.068;2023-12-20T00:11:20;100319.03;;;3.77;100.00
69842;BME280;57138;51.326;-0.068;2023-12-20T00:13:45;100310.41;;;3.75;100.00
69842;BME280;57138;51.326;-0.068;2023-12-20T00:16:12;100318.91;;;3.78;100.00
69842;BME280;57138;51.326;-0.068;2023-12-20T00:18:40;100332.13;;;3.88;100.00
69842;BME280;57138;51.326;-0.068;2023-12-20T00:21:05;100321.25;;;3.82;100.00
69842;BME280;57138;51.326;-0.068;2023-12-20T00:23:31;100344.34;;;3.89;100.00
69842;BME280;57138;51.326;-0.068;2023-12-20T00:25:56;100320.44;;;3.81;100.00
69842;BME280;57138;51.326;-0.068;2023-12-20T00:28:23;100331.41;;;3.86;100.00
69842;BME280;57138;51.326;-0.068;2023-12-20T00:30:50;100320.72;;;3.78;100.00
69842;BME280;57138;51.326;-0.068;2023-12-20T00:33:15;100273.44;;;3.55;100.00
69842;BME280;57138;51.326;-0.068;2023-12-20T00:35:40;100337.69;;;3.85;100.00
69842;BME280;57138;51.326;-0.068;2023-12-20T00:38:07;100352.44;;;3.88;100.00
69842;BME280;57138;51.326;-0.068;2023-12-20T00:40:34;100346.03;;;3.90;100.00
69842;BME280;57138;51.326;-0.068;2023-12-20T00:43:00;100339.38;;;3.76;100.00
69842;BME280;57138;51.326;-0.068;2023-12-20T00:45:25;100327.13;;;3.75;100.00
69842;BME280;57138;51.326;-0.068;2023-12-20T00:47:51;100350.22;;;3.83;100.00
69842;BME280;57138;51.326;-0.068;2023-12-20T00:50:17;100363.59;;;3.91;100.00
69842;BME280;57138;51.326;-0.068;2023-12-20T00:52:42;100349.66;;;3.89;100.00
69842;BME280;57138;51.326;-0.068;2023-12-20T00:55:10;100336.03;;;3.84;100.00
69842;BME280;57138;51.326;-0.068;2023-12-20T00:57:36;100336.28;;;3.91;100.00
69842;BME280;57138;51.326;-0.068;2023-12-20T01:00:03;100324.88;;;3.90;100.00
69842;BME280;57138;51.326;-0.068;2023-12-20T01:02:29;100315.97;;;3.91;100.00
69842;BME280;57138;51.326;-0.068;2023-12-20T01:04:54;100294.56;;;3.75;100.00
69842;BME280;57138;51.326;-0.068;2023-12-20T01:07:20;100303.16;;;3.77;100.00
69842;BME280;57138;51.326;-0.068;2023-12-20T01:09:47;100326.94;;;3.96;100.00
69842;BME280;57138;51.326;-0.068;2023-12-20T01:12:13;100327.78;;;3.97;100.00
69842;BME280;57138;51.326;-0.068;2023-12-20T01:14:38;100292.19;;;3.72;100.00
69842;BME280;57138;51.326;-0.068;2023-12-20T01:17:05;100319.97;;;3.95;100.00
69842;BME280;57138;51.326;-0.068;2023-12-20T01:19:30;100317.34;;;3.95;100.00
69842;BME280;57138;51.326;-0.068;2023-12-20T01:21:56;100324.31;;;3.96;100.00
69842;BME280;57138;51.326;-0.068;2023-12-20T01:24:21;100314.69;;;3.95;100.00
69842;BME280;57138;51.326;-0.068;2023-12-20T01:26:49;100301.75;;;3.92;100.00
69842;BME280;57138;51.326;-0.068;2023-12-20T01:29:15;100302.16;;;3.88;100.00
69842;BME280;57138;51.326;-0.068;2023-12-20T01:31:41;100310.09;;;3.88;100.00
69842;BME280;57138;51.326;-0.068;2023-12-20T01:34:07;100298.88;;;3.76;100.00
69842;BME280;57138;51.326;-0.068;2023-12-20T01:36:32;100324.19;;;3.88;100.00
69842;BME280;57138;51.326;-0.068;2023-12-20T01:38:58;100315.44;;;3.78;100.00
69842;BME280;57138;51.326;-0.068;2023-12-20T01:41:23;100314.19;;;3.82;100.00
69842;BME280;57138;51.326;-0.068;2023-12-20T01:43:49;100316.25;;;3.88;100.00
69842;BME280;57138;51.326;-0.068;2023-12-20T01:46:15;100313.75;;;3.77;100.00
69842;BME280;57138;51.326;-0.068;2023-12-20T01:48:43;100277.88;;;3.65;100.00
69842;BME280;57138;51.326;-0.068;2023-12-20T01:51:10;100323.91;;;3.91;100.00
69842;BME280;57138;51.326;-0.068;2023-12-20T01:53:38;100318.91;;;3.88;100.00
69842;BME280;57138;51.326;-0.068;2023-12-20T01:56:05;100312.91;;;3.86;100.00
69842;BME280;57138;51.326;-0.068;2023-12-20T01:58:31;100318.47;;;3.83;100.00
69842;BME280;57138;51.326;-0.068;2023-12-20T02:00:57;100312.78;;;3.78;100.00
69842;BME280;57138;51.326;-0.068;2023-12-20T02:03:23;100307.22;;;3.81;100.00
69842;BME280;57138;51.326;-0.068;2023-12-20T02:05:48;100296.91;;;3.78;100.00
69842;BME280;57138;51.326;-0.068;2023-12-20T02:08:14;100305.38;;;3.82;100.00
69842;BME280;57138;51.326;-0.068;2023-12-20T02:10:39;100313.19;;;3.83;100.00
69842;BME280;57138;51.326;-0.068;2023-12-20T02:13:06;100305.97;;;3.85;100.00
69842;BME280;57138;51.326;-0.068;2023-12-20T02:15:32;100303.16;;;3.87;100.00
69842;BME280;57138;51.326;-0.068;2023-12-20T02:17:58;100309.56;;;3.84;100.00
69842;BME280;57138;51.326;-0.068;2023-12-20T02:20:25;100302.06;;;3.80;100.00
69842;BME280;57138;51.326;-0.068;2023-12-20T02:22:50;100300.94;;;3.82;100.00
69842;BME280;57138;51.326;-0.068;2023-12-20T02:25:16;100287.59;;;3.74;100.00
69842;BME280;57138;51.326;-0.068;2023-12-20T02:27:42;100300.09;;;3.82;100.00
69842;BME280;57138;51.326;-0.068;2023-12-20T02:30:08;100277.59;;;3.68;100.00
69842;BME280;57138;51.326;-0.068;2023-12-20T02:32:33;100305.66;;;3.78;100.00
69842;BME280;57138;51.326;-0.068;2023-12-20T02:34:59;100296.22;;;3.76;100.00
69842;BME280;57138;51.326;-0.068;2023-12-20T02:37:24;100306.25;;;3.82;100.00
69842;BME280;57138;51.326;-0.068;2023-12-20T02:39:50;100302.34;;;3.76;100.00
69842;BME280;57138;51.326;-0.068;2023-12-20T02:42:15;100261.34;;;3.53;100.00
69842;BME280;57138;51.326;-0.068;2023-12-20T02:44:41;100285.09;;;3.72;100.00
69842;BME280;57138;51.326;-0.068;2023-12-20T02:47:06;100298.59;;;3.79;100.00
69842;BME280;57138;51.326;-0.068;2023-12-20T02:49:32;100299.69;;;3.76;100.00
69842;BME280;57138;51.326;-0.068;2023-12-20T02:51:58;100313.06;;;3.75;100.00
69842;BME280;57138;51.326;-0.068;2023-12-20T02:54:23;100289.44;;;3.64;100.00
69842;BME280;57138;51.326;-0.068;2023-12-20T02:56:49;100264.81;;;3.53;100.00
69842;BME280;57138;51.326;-0.068;2023-12-20T02:59:14;100277.19;;;3.63;100.00
69842;BME280;57138;51.326;-0.068;2023-12-20T03:01:43;100279.81;;;3.63;100.00
69842;BME280;57138;51.326;-0.068;2023-12-20T03:04:09;100299.56;;;3.78;100.00
69842;BME280;57138;51.326;-0.068;2023-12-20T03:06:35;100297.47;;;3.72;100.00
69842;BME280;57138;51.326;-0.068;2023-12-20T03:09:00;100309.84;;;3.81;100.00
69842;BME280;57138;51.326;-0.068;2023-12-20T03:11:29;100303.31;;;3.75;100.00
69842;BME280;57138;51.326;-0.068;2023-12-20T03:13:55;100306.81;;;3.76;100.00
69842;BME280;57138;51.326;-0.068;2023-12-20T03:16:20;100306.53;;;3.79;100.00
69842;BME280;57138;51.326;-0.068;2023-12-20T03:18:46;100283.19;;;3.65;100.00
69842;BME280;57138;51.326;-0.068;2023-12-20T03:21:11;100274.81;;;3.59;100.00
69842;BME280;57138;51.326;-0.068;2023-12-20T03:23:37;100277.06;;;3.54;100.00
69842;BME280;57138;51.326;-0.068;2023-12-20T03:26:02;100290.66;;;3.69;100.00
69842;BME280;57138;51.326;-0.068;2023-12-20T03:28:29;100281.09;;;3.58;100.00
69842;BME280;57138;51.326;-0.068;2023-12-20T03:30:54;100278.75;;;3.55;100.00
69842;BME280;57138;51.326;-0.068;2023-12-20T03:33:20;100303.63;;;3.63;100.00
69842;BME280;57138;51.326;-0.068;2023-12-20T03:35:45;100273.72;;;3.52;100.00
69842;BME280;57138;51.326;-0.068;2023-12-20T03:38:10;100284.72;;;3.57;100.00
69842;BME280;57138;51.326;-0.068;2023-12-20T03:40:36;100281.50;;;3.64;100.00
69842;BME280;57138;51.326;-0.068;2023-12-20T03:43:01;100288.47;;;3.65;100.00
69842;BME280;57138;51.326;-0.068;2023-12-20T03:45:29;100275.81;;;3.58;100.00
69842;BME280;57138;51.326;-0.068;2023-12-20T03:47:54;100285.09;;;3.63;100.00
69842;BME280;57138;51.326;-0.068;2023-12-20T03:50:25;100284.81;;;3.66;100.00
69842;BME280;57138;51.326;-0.068;2023-12-20T03:52:51;100288.47;;;3.65;100.00
69842;BME280;57138;51.326;-0.068;2023-12-20T03:55:16;100264.41;;;3.48;100.00
69842;BME280;57138;51.326;-0.068;2023-12-20T03:57:42;100291.69;;;3.58;100.00
69842;BME280;57138;51.326;-0.068;2023-12-20T04:00:08;100302.94;;;3.60;100.00
69842;BME280;57138;51.326;-0.068;2023-12-20T04:02:40;100315.19;;;3.62;100.00
69842;BME280;57138;51.326;-0.068;2023-12-20T04:05:07;100305.28;;;3.64;100.00
69842;BME280;57138;51.326;-0.068;2023-12-20T04:07:33;100267.34;;;3.35;100.00
69842;BME280;57138;51.326;-0.068;2023-12-20T04:09:58;100300.69;;;3.66;100.00
69842;BME280;57138;51.326;-0.068;2023-12-20T04:12:23;100275.53;;;3.52;100.00
69842;BME280;57138;51.326;-0.068;2023-12-20T04:14:49;100281.81;;;3.51;100.00
69842;BME280;57138;51.326;-0.068;2023-12-20T04:17:15;100247.03;;;3.36;100.00
69842;BME280;57138;51.326;-0.068;2023-12-20T04:19:41;100274.84;;;3.50;100.00
69842;BME280;57138;51.326;-0.068;2023-12-20T04:22:07;100251.75;;;3.42;100.00
69842;BME280;57138;51.326;-0.068;2023-12-20T04:24:32;100275.53;;;3.52;100.00
69842;BME280;57138;51.326;-0.068;2023-12-20T04:26:57;100274.97;;;3.58;100.00
69842;BME280;57138;51.326;-0.068;2023-12-20T04:29:23;100287.06;;;3.60;100.00
69842;BME280;57138;51.326;-0.068;2023-12-20T04:31:48;100287.06;;;3.60;100.00
69842;BME280;57138;51.326;-0.068;2023-12-20T04:34:16;100265.94;;;3.51;100.00
69842;BME280;57138;51.326;-0.068;2023-12-20T04:36:46;100268.31;;;3.54;100.00
69842;BME280;57138;51.326;-0.068;2023-12-20T04:39:14;100283.31;;;3.63;100.00
69842;BME280;57138;51.326;-0.068;2023-12-20T04:41:42;100277.03;;;3.64;100.00
69842;BME280;57138;51.326;-0.068;2023-12-20T04:44:07;100290.41;;;3.63;100.00
69842;BME280;57138;51.326;-0.068;2023-12-20T04:46:33;100255.38;;;3.41;100.00
69842;BME280;57138;51.326;-0.068;2023-12-20T04:48:58;100261.75;;;3.48;100.00
69842;BME280;57138;51.326;-0.068;2023-12-20T04:51:24;100280.69;;;3.63;100.00
69842;BME280;57138;51.326;-0.068;2023-12-20T04:53:49;100279.56;;;3.56;100.00
69842;BME280;57138;51.326;-0.068;2023-12-20T04:56:15;100276.50;;;3.60;100.00
69842;BME280;57138;51.326;-0.068;2023-12-20T04:58:40;100289.03;;;3.58;100.00
69842;BME280;57138;51.326;-0.068;2023-12-20T05:01:06;100274.41;;;3.54;100.00
69842;BME280;57138;51.326;-0.068;2023-12-20T05:03:33;100274.69;;;3.51;100.00
69842;BME280;57138;51.326;-0.068;2023-12-20T05:05:58;100289.44;;;3.64;100.00
69842;BME280;57138;51.326;-0.068;2023-12-20T05:08:24;100280.81;;;3.52;100.00
69842;BME280;57138;51.326;-0.068;2023-12-20T05:10:51;100270.13;;;3.44;100.00
69842;BME280;57138;51.326;-0.068;2023-12-20T05:13:16;100283.75;;;3.58;100.00
69842;BME280;57138;51.326;-0.068;2023-12-20T05:15:42;100276.81;;;3.48;100.00
69842;BME280;57138;51.326;-0.068;2023-12-20T05:18:07;100276.38;;;3.52;100.00
69842;BME280;57138;51.326;-0.068;2023-12-20T05:20:33;100287.91;;;3.61;100.00
69842;BME280;57138;51.326;-0.068;2023-12-20T05:22:58;100291.78;;;3.67;100.00
69842;BME280;57138;51.326;-0.068;2023-12-20T05:25:23;100287.06;;;3.60;100.00
69842;BME280;57138;51.326;-0.068;2023-12-20T05:27:49;100267.72;;;3.50;100.00
69842;BME280;57138;51.326;-0.068;2023-12-20T05:30:14;100268.16;;;3.55;100.00
69842;BME280;57138;51.326;-0.068;2023-12-20T05:32:40;100257.88;;;3.52;100.00
69842;BME280;57138;51.326;-0.068;2023-12-20T05:35:05;100255.63;;;3.57;100.00
69842;BME280;57138;51.326;-0.068;2023-12-20T05:37:31;100264.38;;;3.58;100.00
69842;BME280;57138;51.326;-0.068;2023-12-20T05:39:56;100274.25;;;3.66;100.00
69842;BME280;57138;51.326;-0.068;2023-12-20T05:42:22;100240.59;;;3.58;100.00
69842;BME280;57138;51.326;-0.068;2023-12-20T05:44:47;100253.63;;;3.79;100.00
69842;BME280;57138;51.326;-0.068;2023-12-20T05:47:12;100258.06;;;3.88;100.00
69842;BME280;57138;51.326;-0.068;2023-12-20T05:49:39;100252.19;;;3.94;100.00
69842;BME280;57138;51.326;-0.068;2023-12-20T05:52:06;100246.34;;;3.91;100.00
69842;BME280;57138;51.326;-0.068;2023-12-20T05:54:31;100258.03;;;3.98;100.00
69842;BME280;57138;51.326;-0.068;2023-12-20T05:56:57;100211.31;;;3.79;100.00
69842;BME280;57138;51.326;-0.068;2023-12-20T05:59:22;100230.75;;;3.98;100.00
69842;BME280;57138;51.326;-0.068;2023-12-20T06:01:48;100240.97;;;4.10;100.00
69842;BME280;57138;51.326;-0.068;2023-12-20T06:04:13;100250.47;;;4.13;100.00
69842;BME280;57138;51.326;-0.068;2023-12-20T06:06:42;100241.38;;;4.16;100.00
69842;BME280;57138;51.326;-0.068;2023-12-20T06:09:08;100234.00;;;4.09;100.00
69842;BME280;57138;51.326;-0.068;2023-12-20T06:11:33;100214.88;;;3.98;100.00
69842;BME280;57138;51.326;-0.068;2023-12-20T06:13:59;100239.44;;;4.18;100.00
69842;BME280;57138;51.326;-0.068;2023-12-20T06:16:25;100230.25;;;4.12;100.00
69842;BME280;57138;51.326;-0.068;2023-12-20T06:18:51;100216.22;;;4.02;100.00
69842;BME280;57138;51.326;-0.068;2023-12-20T06:21:16;100230.16;;;4.04;100.00
69842;BME280;57138;51.326;-0.068;2023-12-20T06:23:41;100244.44;;;4.11;100.00
69842;BME280;57138;51.326;-0.068;2023-12-20T06:26:07;100232.50;;;4.07;100.00
69842;BME280;57138;51.326;-0.068;2023-12-20T06:28:32;100231.19;;;3.93;100.00
69842;BME280;57138;51.326;-0.068;2023-12-20T06:30:58;100234.75;;;4.02;100.00
69842;BME280;57138;51.326;-0.068;2023-12-20T06:33:24;100211.41;;;3.87;100.00
69842;BME280;57138;51.326;-0.068;2023-12-20T06:35:50;100232.38;;;3.99;100.00
69842;BME280;57138;51.326;-0.068;2023-12-20T06:38:17;100254.50;;;4.07;100.00
69842;BME280;57138;51.326;-0.068;2023-12-20T06:40:44;100253.53;;;4.08;100.00
69842;BME280;57138;51.326;-0.068;2023-12-20T06:43:10;100234.78;;;3.92;100.00
69842;BME280;57138;51.326;-0.068;2023-12-20T06:45:35;100237.38;;;4.02;100.00
69842;BME280;57138;51.326;-0.068;2023-12-20T06:48:01;100246.56;;;4.07;100.00
69842;BME280;57138;51.326;-0.068;2023-12-20T06:50:26;100245.75;;;4.07;100.00
69842;BME280;57138;51.326;-0.068;2023-12-20T06:52:52;100248.38;;;4.07;100.00
69842;BME280;57138;51.326;-0.068;2023-12-20T06:55:18;100246.28;;;4.10;100.00
69842;BME280;57138;51.326;-0.068;2023-12-20T06:57:43;100246.13;;;4.12;100.00
69842;BME280;57138;51.326;-0.068;2023-12-20T07:00:12;100250.47;;;4.13;100.00
69842;BME280;57138;51.326;-0.068;2023-12-20T07:02:38;100240.75;;;4.04;100.00
69842;BME280;57138;51.326;-0.068;2023-12-20T07:05:04;100222.59;;;4.09;100.00
69842;BME280;57138;51.326;-0.068;2023-12-20T07:07:30;100219.88;;;4.01;100.00
69842;BME280;57138;51.326;-0.068;2023-12-20T07:09:59;100232.59;;;4.15;100.00
69842;BME280;57138;51.326;-0.068;2023-12-20T07:12:24;100215.63;;;4.08;100.00
69842;BME280;57138;51.326;-0.068;2023-12-20T07:14:50;100221.94;;;4.07;100.00
69842;BME280;57138;51.326;-0.068;2023-12-20T07:17:15;100225.94;;;4.11;100.00
69842;BME280;57138;51.326;-0.068;2023-12-20T07:19:41;100214.81;;;4.07;100.00
69842;BME280;57138;51.326;-0.068;2023-12-20T07:22:07;100222.56;;;4.19;100.00
69842;BME280;57138;51.326;-0.068;2023-12-20T07:24:34;100207.16;;;4.04;100.00
69842;BME280;57138;51.326;-0.068;2023-12-20T07:27:00;100203.44;;;3.97;100.00
69842;BME280;57138;51.326;-0.068;2023-12-20T07:29:26;100217.59;;;4.06;100.00
69842;BME280;57138;51.326;-0.068;2023-12-20T07:31:52;100214.75;;;4.17;100.00
69842;BME280;57138;51.326;-0.068;2023-12-20T07:34:19;100213.00;;;4.08;100.00
69842;BME280;57138;51.326;-0.068;2023-12-20T07:36:45;100223.78;;;4.24;100.00
69842;BME280;57138;51.326;-0.068;2023-12-20T07:39:11;100222.78;;;4.25;100.00
69842;BME280;57138;51.326;-0.068;2023-12-20T07:41:36;100223.00;;;4.14;100.00
69842;BME280;57138;51.326;-0.068;2023-12-20T07:44:03;100223.00;;;4.14;100.00
69842;BME280;57138;51.326;-0.068;2023-12-20T07:46:29;100197.81;;;4.10;100.00
69842;BME280;57138;51.326;-0.068;2023-12-20T07:48:54;100223.09;;;4.22;100.00
69842;BME280;57138;51.326;-0.068;2023-12-20T07:51:20;100215.75;;;4.16;100.00
69842;BME280;57138;51.326;-0.068;2023-12-20T07:53:46;100221.53;;;4.29;100.00
69842;BME280;57138;51.326;-0.068;2023-12-20T07:56:19;100218.28;;;4.36;100.00
69842;BME280;57138;51.326;-0.068;2023-12-20T07:58:45;100233.56;;;4.42;100.00
69842;BME280;57138;51.326;-0.068;2023-12-20T08:01:11;100192.72;;;4.26;100.00
69842;BME280;57138;51.326;-0.068;2023-12-20T08:03:37;100230.28;;;4.30;100.00
69842;BME280;57138;51.326;-0.068;2023-12-20T08:06:04;100195.56;;;4.15;100.00
69842;BME280;57138;51.326;-0.068;2023-12-20T08:08:30;100199.19;;;4.14;100.00
69842;BME280;57138;51.326;-0.068;2023-12-20T08:10:55;100241.22;;;4.45;100.00
69842;BME280;57138;51.326;-0.068;2023-12-20T08:13:23;100240.25;;;4.46;100.00
69842;BME280;57138;51.326;-0.068;2023-12-20T08:15:51;100230.56;;;4.37;100.00
69842;BME280;57138;51.326;-0.068;2023-12-20T08:18:17;100243.28;;;4.51;100.00
69842;BME280;57138;51.326;-0.068;2023-12-20T08:20:42;100229.69;;;4.36;100.00
69842;BME280;57138;51.326;-0.068;2023-12-20T08:23:08;100260.94;;;4.60;100.00
69842;BME280;57138;51.326;-0.068;2023-12-20T08:25:34;100222.25;;;4.49;100.00
69842;BME280;57138;51.326;-0.068;2023-12-20T08:28:02;100231.66;;;4.62;100.00
69842;BME280;57138;51.326;-0.068;2023-12-20T08:30:28;100245.81;;;4.71;100.00
69842;BME280;57138;51.326;-0.068;2023-12-20T08:32:53;100243.78;;;4.64;100.00
69842;BME280;57138;51.326;-0.068;2023-12-20T08:35:18;100246.50;;;4.73;100.00
69842;BME280;57138;51.326;-0.068;2023-12-20T08:37:45;100254.00;;;4.77;100.00
69842;BME280;57138;51.326;-0.068;2023-12-20T08:40:11;100215.09;;;4.60;100.00
69842;BME280;57138;51.326;-0.068;2023-12-20T08:42:36;100243.84;;;4.73;100.00
69842;BME280;57138;51.326;-0.068;2023-12-20T08:45:02;100241.06;;;4.74;100.00
69842;BME280;57138;51.326;-0.068;2023-12-20T08:47:29;100253.13;;;4.77;100.00
69842;BME280;57138;51.326;-0.068;2023-12-20T08:49:55;100233.47;;;4.61;100.00
69842;BME280;57138;51.326;-0.068;2023-12-20T08:52:23;100259.00;;;4.80;100.00
69842;BME280;57138;51.326;-0.068;2023-12-20T08:54:52;100264.81;;;4.84;100.00
69842;BME280;57138;51.326;-0.068;2023-12-20T08:57:20;100244.22;;;4.78;100.00
69842;BME280;57138;51.326;-0.068;2023-12-20T08:59:47;100246.56;;;4.81;100.00
69842;BME280;57138;51.326;-0.068;2023-12-20T09:02:13;100226.97;;;4.74;100.00
69842;BME280;57138;51.326;-0.068;2023-12-20T09:04:41;100264.44;;;4.97;100.00
69842;BME280;57138;51.326;-0.068;2023-12-20T09:07:06;100209.41;;;4.73;100.00
69842;BME280;57138;51.326;-0.068;2023-12-20T09:09:32;100227.41;;;4.87;100.00
69842;BME280;57138;51.326;-0.068;2023-12-20T09:11:58;100248.94;;;5.02;100.00
69842;BME280;57138;51.326;-0.068;2023-12-20T09:14:23;100210.41;;;4.90;100.00
69842;BME280;57138;51.326;-0.068;2023-12-20T09:16:49;100172.63;;;4.70;100.00
69842;BME280;57138;51.326;-0.068;2023-12-20T09:19:17;100228.63;;;5.11;100.00
69842;BME280;57138;51.326;-0.068;2023-12-20T09:21:42;100230.97;;;5.14;100.00
69842;BME280;57138;51.326;-0.068;2023-12-20T09:24:08;100205.38;;;5.04;100.00
69842;BME280;57138;51.326;-0.068;2023-12-20T09:26:34;100228.88;;;5.17;100.00
69842;BME280;57138;51.326;-0.068;2023-12-20T09:29:00;100223.56;;;5.17;100.00
69842;BME280;57138;51.326;-0.068;2023-12-20T09:31:25;100224.69;;;5.15;100.00
69842;BME280;57138;51.326;-0.068;2023-12-20T09:33:51;100221.44;;;5.21;100.00
69842;BME280;57138;51.326;-0.068;2023-12-20T09:36:16;100242.09;;;5.35;100.00
69842;BME280;57138;51.326;-0.068;2023-12-20T09:38:42;100242.44;;;5.40;100.00
69842;BME280;57138;51.326;-0.068;2023-12-20T09:41:07;100195.28;;;5.26;100.00
69842;BME280;57138;51.326;-0.068;2023-12-20T09:43:35;100214.44;;;5.38;100.00
69842;BME280;57138;51.326;-0.068;2023-12-20T09:46:05;100248.06;;;5.64;100.00
69842;BME280;57138;51.326;-0.068;2023-12-20T09:48:31;100248.81;;;5.74;100.00
69842;BME280;57138;51.326;-0.068;2023-12-20T09:50:59;100249.06;;;5.89;100.00
69842;BME280;57138;51.326;-0.068;2023-12-20T09:53:25;100223.69;;;5.86;100.00
69842;BME280;57138;51.326;-0.068;2023-12-20T09:55:58;100230.88;;;5.94;100.00
69842;BME280;57138;51.326;-0.068;2023-12-20T09:58:25;100239.03;;;6.01;100.00
69842;BME280;57138;51.326;-0.068;2023-12-20T10:00:51;100241.47;;;5.94;100.00
69842;BME280;57138;51.326;-0.068;2023-12-20T10:03:16;100257.31;;;6.04;100.00
69842;BME280;57138;51.326;-0.068;2023-12-20T10:05:44;100262.50;;;6.14;100.00
69842;BME280;57138;51.326;-0.068;2023-12-20T10:08:09;100253.22;;;6.18;100.00
69842;BME280;57138;51.326;-0.068;2023-12-20T10:10:35;100227.31;;;6.11;100.00
69842;BME280;57138;51.326;-0.068;2023-12-20T10:13:05;100249.97;;;6.32;100.00
69842;BME280;57138;51.326;-0.068;2023-12-20T10:15:35;100235.69;;;6.25;100.00
69842;BME280;57138;51.326;-0.068;2023-12-20T10:18:01;100231.03;;;6.27;100.00
69842;BME280;57138;51.326;-0.068;2023-12-20T10:20:28;100259.78;;;6.40;100.00
69842;BME280;57138;51.326;-0.068;2023-12-20T10:22:57;100241.50;;;6.37;100.00
69842;BME280;57138;51.326;-0.068;2023-12-20T10:25:24;100230.56;;;6.40;100.00
69842;BME280;57138;51.326;-0.068;2023-12-20T10:27:51;100240.06;;;6.42;100.00
69842;BME280;57138;51.326;-0.068;2023-12-20T10:30:34;100250.19;;;6.47;100.00
69842;BME280;57138;51.326;-0.068;2023-12-20T10:32:59;100226.09;;;6.40;100.00
69842;BME280;57138;51.326;-0.068;2023-12-20T10:35:25;100245.72;;;6.56;100.00
69842;BME280;57138;51.326;-0.068;2023-12-20T10:37:55;100224.94;;;6.43;100.00
69842;BME280;57138;51.326;-0.068;2023-12-20T10:40:22;100251.25;;;6.62;100.00
69842;BME280;57138;51.326;-0.068;2023-12-20T10:42:48;100243.44;;;6.61;100.00
69842;BME280;57138;51.326;-0.068;2023-12-20T10:45:16;100216.00;;;6.52;100.00
69842;BME280;57138;51.326;-0.068;2023-12-20T10:47:46;100199.56;;;6.48;100.00
69842;BME280;57138;51.326;-0.068;2023-12-20T10:50:12;100215.38;;;6.66;100.00
69842;BME280;57138;51.326;-0.068;2023-12-20T10:52:38;100224.84;;;6.69;100.00
69842;BME280;57138;51.326;-0.068;2023-12-20T10:55:07;100206.25;;;6.69;100.00
69842;BME280;57138;51.326;-0.068;2023-12-20T10:57:35;100193.63;;;6.63;100.00
69842;BME280;57138;51.326;-0.068;2023-12-20T11:00:02;100208.25;;;6.75;100.00
69842;BME280;57138;51.326;-0.068;2023-12-20T11:02:39;100201.91;;;6.68;100.00
69842;BME280;57138;51.326;-0.068;2023-12-20T11:07:47;100178.38;;;6.73;100.00
69842;BME280;57138;51.326;-0.068;2023-12-20T11:10:29;100193.31;;;6.82;100.00
69842;BME280;57138;51.326;-0.068;2023-12-20T11:13:06;100168.88;;;6.87;100.00
69842;BME280;57138;51.326;-0.068;2023-12-20T11:15:36;100176.69;;;6.89;100.00
69842;BME280;57138;51.326;-0.068;2023-12-20T11:18:03;100171.03;;;6.92;100.00
69842;BME280;57138;51.326;-0.068;2023-12-20T11:20:40;100139.81;;;6.69;100.00
69842;BME280;57138;51.326;-0.068;2023-12-20T11:23:09;100165.06;;;6.81;100.00
69842;BME280;57138;51.326;-0.068;2023-12-20T11:25:54;100156.78;;;6.84;100.00
69842;BME280;57138;51.326;-0.068;2023-12-20T11:28:22;100132.84;;;6.68;100.00
69842;BME280;57138;51.326;-0.068;2023-12-20T11:30:54;100144.63;;;6.90;100.00
69842;BME280;57138;51.326;-0.068;2023-12-20T11:33:37;100147.78;;;6.86;100.00
69842;BME280;57138;51.326;-0.068;2023-12-20T11:36:03;100128.53;;;6.75;100.00
69842;BME280;57138;51.326;-0.068;2023-12-20T11:38:38;100121.56;;;6.91;100.00
69842;BME280;57138;51.326;-0.068;2023-12-20T11:41:07;100090.00;;;6.71;100.00
69842;BME280;57138;51.326;-0.068;2023-12-20T11:43:37;100109.25;;;6.98;100.00
69842;BME280;57138;51.326;-0.068;2023-12-20T11:46:07;100078.19;;;6.90;100.00
69842;BME280;57138;51.326;-0.068;2023-12-20T11:48:35;100120.38;;;7.10;100.00
69842;BME280;57138;51.326;-0.068;2023-12-20T11:51:02;100118.53;;;7.10;100.00
69842;BME280;57138;51.326;-0.068;2023-12-20T11:53:29;100086.31;;;7.05;100.00
69842;BME280;57138;51.326;-0.068;2023-12-20T11:55:58;100108.25;;;7.15;100.00
69842;BME280;57138;51.326;-0.068;2023-12-20T11:58:25;100110.19;;;7.30;100.00
69842;BME280;57138;51.326;-0.068;2023-12-20T12:00:51;100078.97;;;7.24;100.00
69842;BME280;57138;51.326;-0.068;2023-12-20T12:03:20;100078.28;;;7.30;100.00
69842;BME280;57138;51.326;-0.068;2023-12-20T12:05:47;100059.03;;;7.28;100.00
69842;BME280;57138;51.326;-0.068;2023-12-20T12:08:13;100065.44;;;7.42;100.00
69842;BME280;57138;51.326;-0.068;2023-12-20T12:10:39;100057.16;;;7.36;100.00
69842;BME280;57138;51.326;-0.068;2023-12-20T12:13:04;100055.47;;;7.44;100.00
69842;BME280;57138;51.326;-0.068;2023-12-20T12:15:31;100074.34;;;7.57;100.00
69842;BME280;57138;51.326;-0.068;2023-12-20T12:17:57;100049.28;;;7.43;100.00
69842;BME280;57138;51.326;-0.068;2023-12-20T12:20:24;100050.59;;;7.55;100.00
69842;BME280;57138;51.326;-0.068;2023-12-20T12:23:04;100031.78;;;7.57;100.00
69842;BME280;57138;51.326;-0.068;2023-12-20T12:25:32;100051.84;;;7.76;100.00
69842;BME280;57138;51.326;-0.068;2023-12-20T12:27:58;100044.63;;;7.85;100.00
69842;BME280;57138;51.326;-0.068;2023-12-20T12:30:24;100047.78;;;7.88;100.00
69842;BME280;57138;51.326;-0.068;2023-12-20T12:32:53;100048.06;;;7.94;100.00
69842;BME280;57138;51.326;-0.068;2023-12-20T12:35:19;100047.38;;;8.00;100.00
69842;BME280;57138;51.326;-0.068;2023-12-20T12:37:46;100028.41;;;7.95;100.00
69842;BME280;57138;51.326;-0.068;2023-12-20T12:40:14;100048.72;;;7.96;100.00